Skull Valley, AZ

10:23 PM MST on August 27, 2014 (GMT -0700)
Long Meadow Ranch | Change Station
CLOSE
Current Station
Personal Weather Station
Location: Prescott, AZ
Elevation: 4764 ft
Nearby Weather Stations

Elev 4764 ft 34.73 °N, 112.64 °W | Updated 1 second ago

Clear
Clear
60.6 °F
Feels Like 60.6 °F
N
4.0
Wind Variable Wind from South
Gusts 4.0 mph

Today
High -- | Low -- °F
--% Chance of Precip.
Yesterday
High -- | Low -- °F
Precip. -- in
6:00 AM 7:03 PM
Waxing Crescent, 6% visible
Pressure 30.04 in
Visibility 10.0 miles
Clouds Clear
Dew Point 57 °F
Humidity 87%
Rainfall 0.48 in
Snow Depth Not available.
UV 0 out of 12
Pollen 6.10 out of 12
Air Quality Not available.
Flu Activity Not available.
METAR KPRC 280453Z AUTO 19007KT 10SM CLR 18/12 A3024 RMK AO2 SLP171 T01830117 $

More Conditions Fewer Conditions

Pressure 30.04 in
Visibility 10.0 miles
Clouds Clear
Dew Point 57 °F
Humidity 87%
Rainfall 0.48 in
Snow Depth Not available.
UV 0 out of 12
Pollen 6.10 out of 12
Air Quality Not available.
Flu Activity Not available.
METAR KPRC 280453Z AUTO 19007KT 10SM CLR 18/12 A3024 RMK AO2 SLP171 T01830117 $

More Conditions Fewer Conditions

10-Day Weather Forecast

Almanac

Astronomy

Aug. 27, 2014 Rise Set
Actual Time 6:00 AM MST 7:03 PM MST
Civil Twilight 5:34 AM MST 7:29 PM MST
Nautical Twilight 5:03 AM MST 8:00 PM MST
Astronomical Twilight 4:31 AM MST 8:31 PM MST
Moon 7:53 AM MST (8/27) 8:05 PM MST (8/27)
Length of Visible Light 13h 55m
Length of Day
13h 03m
Tomorrow will be 2m 2s shorter.
Waxing Crescent, 6% of the Moon is Illuminated
Aug 28
Waxing Crescent
Sep 2
First Quarter
Sep 8
Full
Sep 15
Last Quarter
Sep 24
New

Yesterday's Extremes

State Highs State Lows

Community

WunderPhotos

Upload Photos

1,747,909 photos uploaded!

Nearby

Snow Depth

Station Depth Elevation
White Horse Lake 0 in 7180 ft
Mormon Mountain 0 in 7500 ft
Snowslide Canyon 1 in 9730 ft
Promontory 0 in 7930 ft
Workman Creek 2 in 6900 ft

Earthquake Activity

City Distance Mag. Time & Date
No recent earthquake activity has been reported nearby.
Minimum magnitude displayed is 2.5.

Coastal Water Temperatures

Place Temperature
No Stations Reporting

Nearby Weather Stations